IBE543 LEMD-LPPR
Flight info
| Callsign | IBE543 |
|---|---|
| Flight time | 0h 45m |
| Altitude | 30000 |
| Route | BARDI DCT RIVRO DCT PESUL |
| Aircraft | A320/M-SDE3FGHIRWY/LB1 |
Departure
| Time | 2026-05-03 21:29 |
|---|---|
| Airport | Adolfo Suárez Madrid–Barajas Airport (LEMD) |
Arrival
| Time | 2026-05-03 22:14 |
|---|---|
| Airport | Francisco de Sá Carneiro Airport (LPPR) |
| Time | Latitude | Longitude | Altitude | Speed | Heading |
|---|---|---|---|---|---|
| 2026-05-03 20:47 | 40.49189 | -3.58964 | 2050 ft | 0 kts | 271° |
| 2026-05-03 21:20 | 40.49189 | -3.58957 | 2022 ft | 2 kts | 270° |
| 2026-05-03 21:20 | 40.49188 | -3.58936 | 2033 ft | 2 kts | 276° |
| 2026-05-03 21:21 | 40.49185 | -3.58914 | 2027 ft | 2 kts | 287° |
| 2026-05-03 21:21 | 40.49179 | -3.58894 | 2033 ft | 2 kts | 313° |
| 2026-05-03 21:21 | 40.49166 | -3.58882 | 2031 ft | 2 kts | 353° |
| 2026-05-03 21:21 | 40.49156 | -3.58881 | 2030 ft | 1 kts | 1° |
| 2026-05-03 21:22 | 40.49155 | -3.58881 | 2029 ft | 0 kts | 1° |
| 2026-05-03 21:24 | 40.49164 | -3.58881 | 2022 ft | 3 kts | 0° |
| 2026-05-03 21:24 | 40.49222 | -3.58874 | 2030 ft | 10 kts | 24° |
| 2026-05-03 21:24 | 40.49240 | -3.58794 | 2027 ft | 10 kts | 89° |
| 2026-05-03 21:25 | 40.49241 | -3.58671 | 2025 ft | 20 kts | 90° |
| 2026-05-03 21:25 | 40.49241 | -3.58472 | 2014 ft | 24 kts | 90° |
| 2026-05-03 21:25 | 40.49243 | -3.58233 | 2007 ft | 28 kts | 90° |
| 2026-05-03 21:25 | 40.49243 | -3.57952 | 1999 ft | 33 kts | 90° |
| 2026-05-03 21:26 | 40.49242 | -3.57687 | 1991 ft | 21 kts | 86° |
| 2026-05-03 21:26 | 40.49260 | -3.57581 | 1987 ft | 0 kts | 64° |
| 2026-05-03 21:27 | 40.49273 | -3.57546 | 1987 ft | 10 kts | 68° |
| 2026-05-03 21:27 | 40.49285 | -3.57456 | 1984 ft | 10 kts | 49° |
| 2026-05-03 21:27 | 40.49328 | -3.57447 | 1983 ft | 0 kts | 355° |
| 2026-05-03 21:28 | 40.49444 | -3.57457 | 1983 ft | 50 kts | 358° |
| 2026-05-03 21:28 | 40.50030 | -3.57458 | 1988 ft | 115 kts | 359° |
| 2026-05-03 21:28 | 40.51015 | -3.57468 | 1997 ft | 165 kts | 359° |
| 2026-05-03 21:28 | 40.52209 | -3.57476 | 2494 ft | 169 kts | 359° |
| 2026-05-03 21:29 | 40.53391 | -3.57491 | 3133 ft | 170 kts | 358° |
| 2026-05-03 21:29 | 40.54589 | -3.57507 | 3772 ft | 174 kts | 357° |
| 2026-05-03 21:29 | 40.55815 | -3.57437 | 4300 ft | 180 kts | 9° |
| 2026-05-03 21:29 | 40.57033 | -3.57032 | 4877 ft | 182 kts | 14° |
| 2026-05-03 21:30 | 40.58252 | -3.56531 | 5352 ft | 189 kts | 15° |
| 2026-05-03 21:30 | 40.59582 | -3.55978 | 5558 ft | 213 kts | 15° |
| 2026-05-03 21:30 | 40.61074 | -3.55363 | 5858 ft | 235 kts | 15° |
| 2026-05-03 21:30 | 40.62678 | -3.54747 | 6502 ft | 242 kts | 14° |
| 2026-05-03 21:31 | 40.64332 | -3.54280 | 7267 ft | 245 kts | 3° |
| 2026-05-03 21:31 | 40.66052 | -3.54094 | 8003 ft | 251 kts | 2° |
| 2026-05-03 21:31 | 40.67816 | -3.54008 | 8702 ft | 256 kts | 351° |
| 2026-05-03 21:31 | 40.69487 | -3.54779 | 9377 ft | 257 kts | 321° |
| 2026-05-03 21:32 | 40.70697 | -3.56516 | 9891 ft | 265 kts | 292° |
| 2026-05-03 21:32 | 40.71190 | -3.58853 | 10463 ft | 269 kts | 274° |
| 2026-05-03 21:32 | 40.71156 | -3.61276 | 11125 ft | 270 kts | 256° |
| 2026-05-03 21:32 | 40.70648 | -3.63689 | 11673 ft | 282 kts | 251° |
| 2026-05-03 21:33 | 40.70156 | -3.66333 | 11955 ft | 306 kts | 257° |
| 2026-05-03 21:33 | 40.69898 | -3.69203 | 12352 ft | 322 kts | 262° |
| 2026-05-03 21:33 | 40.69760 | -3.72136 | 13045 ft | 328 kts | 264° |
| 2026-05-03 21:33 | 40.69673 | -3.75158 | 13803 ft | 332 kts | 264° |
| 2026-05-03 21:34 | 40.69603 | -3.78208 | 14476 ft | 335 kts | 265° |
| 2026-05-03 21:34 | 40.69531 | -3.81291 | 15153 ft | 337 kts | 265° |
| 2026-05-03 21:34 | 40.69449 | -3.84386 | 15850 ft | 340 kts | 264° |
| 2026-05-03 21:34 | 40.69368 | -3.87107 | 16447 ft | 342 kts | 264° |
| 2026-05-03 21:35 | 40.69315 | -3.88751 | 16774 ft | 344 kts | 264° |
| 2026-05-03 21:35 | 40.69207 | -3.91908 | 17429 ft | 347 kts | 264° |
| 2026-05-03 21:35 | 40.69091 | -3.95116 | 17842 ft | 357 kts | 264° |
| 2026-05-03 21:36 | 40.68966 | -3.98463 | 17978 ft | 374 kts | 264° |
| 2026-05-03 21:36 | 40.68834 | -4.01933 | 18277 ft | 384 kts | 264° |
| 2026-05-03 21:36 | 40.68701 | -4.05473 | 18750 ft | 388 kts | 264° |
| 2026-05-03 21:36 | 40.68571 | -4.09042 | 19271 ft | 391 kts | 264° |
| 2026-05-03 21:37 | 40.68443 | -4.12625 | 19792 ft | 392 kts | 264° |
| 2026-05-03 21:37 | 40.68312 | -4.16222 | 20319 ft | 394 kts | 264° |
| 2026-05-03 21:37 | 40.68177 | -4.19830 | 20824 ft | 395 kts | 263° |
| 2026-05-03 21:37 | 40.68043 | -4.23449 | 21336 ft | 397 kts | 263° |
| 2026-05-03 21:38 | 40.67905 | -4.27085 | 21837 ft | 398 kts | 263° |
| 2026-05-03 21:38 | 40.67765 | -4.30731 | 22307 ft | 399 kts | 263° |
| 2026-05-03 21:38 | 40.67623 | -4.34394 | 22757 ft | 401 kts | 263° |
| 2026-05-03 21:38 | 40.67479 | -4.38063 | 23195 ft | 402 kts | 263° |
| 2026-05-03 21:39 | 40.67334 | -4.41752 | 23622 ft | 404 kts | 263° |
| 2026-05-03 21:39 | 40.67188 | -4.45445 | 23975 ft | 405 kts | 263° |
| 2026-05-03 21:39 | 40.67040 | -4.49161 | 24317 ft | 407 kts | 263° |
| 2026-05-03 21:39 | 40.66890 | -4.52887 | 24669 ft | 408 kts | 263° |
| 2026-05-03 21:40 | 40.66740 | -4.56614 | 24994 ft | 409 kts | 263° |
| 2026-05-03 21:40 | 40.66587 | -4.60360 | 25319 ft | 410 kts | 263° |
| 2026-05-03 21:40 | 40.66436 | -4.64075 | 25606 ft | 412 kts | 263° |
| 2026-05-03 21:40 | 40.66278 | -4.67850 | 25909 ft | 413 kts | 263° |
| 2026-05-03 21:41 | 40.66117 | -4.71635 | 26218 ft | 415 kts | 263° |
| 2026-05-03 21:41 | 40.65954 | -4.75428 | 26508 ft | 416 kts | 263° |
| 2026-05-03 21:41 | 40.65791 | -4.79230 | 26788 ft | 417 kts | 263° |
| 2026-05-03 21:41 | 40.65627 | -4.83040 | 27063 ft | 418 kts | 263° |
| 2026-05-03 21:42 | 40.65462 | -4.86865 | 27328 ft | 419 kts | 263° |
| 2026-05-03 21:42 | 40.65297 | -4.90700 | 27585 ft | 419 kts | 263° |
| 2026-05-03 21:42 | 40.65130 | -4.94529 | 27905 ft | 418 kts | 263° |
| 2026-05-03 21:42 | 40.64962 | -4.98341 | 28235 ft | 418 kts | 263° |
| 2026-05-03 21:43 | 40.64850 | -5.00873 | 28455 ft | 418 kts | 263° |
| 2026-05-03 21:43 | 40.64682 | -5.04682 | 28801 ft | 416 kts | 263° |
| 2026-05-03 21:43 | 40.64514 | -5.08483 | 29152 ft | 415 kts | 263° |
| 2026-05-03 21:43 | 40.64345 | -5.12267 | 29484 ft | 414 kts | 263° |
| 2026-05-03 21:44 | 40.64174 | -5.16043 | 29765 ft | 412 kts | 263° |
| 2026-05-03 21:44 | 40.64000 | -5.19803 | 29970 ft | 412 kts | 263° |
| 2026-05-03 21:44 | 40.63642 | -5.27336 | 30022 ft | 412 kts | 263° |
| 2026-05-03 21:45 | 40.63288 | -5.34871 | 30036 ft | 413 kts | 263° |
| 2026-05-03 21:45 | 40.62927 | -5.42417 | 30025 ft | 413 kts | 263° |
| 2026-05-03 21:46 | 40.62556 | -5.49949 | 30024 ft | 413 kts | 263° |
| 2026-05-03 21:46 | 40.62181 | -5.57486 | 30023 ft | 412 kts | 263° |
| 2026-05-03 21:47 | 40.61811 | -5.65022 | 30021 ft | 412 kts | 263° |
| 2026-05-03 21:47 | 40.61429 | -5.72541 | 30042 ft | 412 kts | 263° |
| 2026-05-03 21:48 | 40.61042 | -5.80051 | 30046 ft | 411 kts | 263° |
| 2026-05-03 21:48 | 40.60657 | -5.87557 | 30033 ft | 411 kts | 263° |
| 2026-05-03 21:49 | 40.60267 | -5.95050 | 30028 ft | 410 kts | 263° |
| 2026-05-03 21:49 | 40.59864 | -6.02532 | 30023 ft | 410 kts | 262° |
| 2026-05-03 21:50 | 40.59459 | -6.10015 | 30048 ft | 410 kts | 262° |
| 2026-05-03 21:50 | 40.59052 | -6.17486 | 30042 ft | 409 kts | 262° |
| 2026-05-03 21:51 | 40.58640 | -6.24945 | 30036 ft | 409 kts | 262° |
| 2026-05-03 21:51 | 40.58393 | -6.32373 | 30035 ft | 412 kts | 268° |
| 2026-05-03 21:52 | 40.58990 | -6.39892 | 30030 ft | 415 kts | 274° |
| 2026-05-03 21:52 | 40.59900 | -6.47404 | 30073 ft | 416 kts | 274° |
| 2026-05-03 21:53 | 40.60713 | -6.54898 | 30055 ft | 415 kts | 273° |
| 2026-05-03 21:53 | 40.61411 | -6.62435 | 30040 ft | 414 kts | 272° |
| 2026-05-03 21:54 | 40.62253 | -6.69950 | 30035 ft | 418 kts | 278° |
| 2026-05-03 21:54 | 40.63633 | -6.77382 | 30029 ft | 419 kts | 279° |
| 2026-05-03 21:55 | 40.65056 | -6.84814 | 30048 ft | 419 kts | 279° |
| 2026-05-03 21:55 | 40.66471 | -6.92251 | 30042 ft | 418 kts | 279° |
| 2026-05-03 21:56 | 40.67868 | -6.99684 | 30036 ft | 418 kts | 279° |
| 2026-05-03 21:56 | 40.69253 | -7.07116 | 30039 ft | 418 kts | 279° |
| 2026-05-03 21:57 | 40.70630 | -7.14555 | 30035 ft | 418 kts | 279° |
| 2026-05-03 21:57 | 40.72009 | -7.22012 | 30060 ft | 418 kts | 279° |
| 2026-05-03 21:58 | 40.73384 | -7.29406 | 30053 ft | 418 kts | 279° |
| 2026-05-03 21:58 | 40.74066 | -7.33091 | 29745 ft | 409 kts | 279° |
| 2026-05-03 21:58 | 40.74731 | -7.36697 | 29183 ft | 401 kts | 279° |
| 2026-05-03 21:59 | 40.75381 | -7.40246 | 28629 ft | 394 kts | 278° |
| 2026-05-03 21:59 | 40.76020 | -7.43734 | 28084 ft | 388 kts | 278° |
| 2026-05-03 21:59 | 40.76650 | -7.47172 | 27551 ft | 383 kts | 278° |
| 2026-05-03 21:59 | 40.77272 | -7.50573 | 27020 ft | 379 kts | 278° |
| 2026-05-03 22:00 | 40.77885 | -7.53947 | 26516 ft | 379 kts | 278° |
| 2026-05-03 22:00 | 40.78499 | -7.57338 | 25918 ft | 381 kts | 278° |
| 2026-05-03 22:00 | 40.79112 | -7.60740 | 25198 ft | 382 kts | 278° |
| 2026-05-03 22:00 | 40.79726 | -7.64154 | 24479 ft | 383 kts | 279° |
| 2026-05-03 22:01 | 40.80343 | -7.67577 | 23769 ft | 383 kts | 279° |
| 2026-05-03 22:01 | 40.80962 | -7.71000 | 22963 ft | 384 kts | 279° |
| 2026-05-03 22:01 | 40.81582 | -7.74427 | 22150 ft | 385 kts | 279° |
| 2026-05-03 22:01 | 40.82203 | -7.77873 | 21356 ft | 386 kts | 279° |
| 2026-05-03 22:02 | 40.82821 | -7.81322 | 20593 ft | 387 kts | 279° |
| 2026-05-03 22:02 | 40.83441 | -7.84783 | 19836 ft | 387 kts | 279° |
| 2026-05-03 22:02 | 40.84062 | -7.88248 | 19103 ft | 388 kts | 279° |
| 2026-05-03 22:02 | 40.84682 | -7.91719 | 18391 ft | 389 kts | 280° |
| 2026-05-03 22:03 | 40.85303 | -7.95200 | 17638 ft | 389 kts | 280° |
| 2026-05-03 22:03 | 40.85920 | -7.98645 | 17118 ft | 383 kts | 280° |
| 2026-05-03 22:03 | 40.86527 | -8.02049 | 16595 ft | 378 kts | 280° |
| 2026-05-03 22:03 | 40.87124 | -8.05414 | 16081 ft | 374 kts | 280° |
| 2026-05-03 22:04 | 40.87710 | -8.08737 | 15583 ft | 370 kts | 281° |
| 2026-05-03 22:04 | 40.88293 | -8.12033 | 15077 ft | 367 kts | 281° |
| 2026-05-03 22:04 | 40.88915 | -8.15280 | 14613 ft | 363 kts | 283° |
| 2026-05-03 22:04 | 40.89572 | -8.18454 | 14360 ft | 353 kts | 283° |
| 2026-05-03 22:05 | 40.90232 | -8.21533 | 14120 ft | 343 kts | 284° |
| 2026-05-03 22:05 | 40.90874 | -8.24527 | 13877 ft | 334 kts | 284° |
| 2026-05-03 22:05 | 40.91499 | -8.27474 | 13361 ft | 333 kts | 283° |
| 2026-05-03 22:05 | 40.92115 | -8.30415 | 12835 ft | 331 kts | 283° |
| 2026-05-03 22:06 | 40.92723 | -8.33349 | 12313 ft | 330 kts | 283° |
| 2026-05-03 22:06 | 40.93324 | -8.36268 | 11792 ft | 329 kts | 284° |
| 2026-05-03 22:06 | 40.93924 | -8.39193 | 11163 ft | 330 kts | 284° |
| 2026-05-03 22:06 | 40.94517 | -8.42096 | 10610 ft | 321 kts | 284° |
| 2026-05-03 22:07 | 40.95083 | -8.44879 | 10076 ft | 307 kts | 284° |
| 2026-05-03 22:07 | 40.95628 | -8.47547 | 9510 ft | 295 kts | 284° |
| 2026-05-03 22:07 | 40.96154 | -8.50118 | 8930 ft | 285 kts | 285° |
| 2026-05-03 22:07 | 40.96661 | -8.52611 | 8359 ft | 276 kts | 285° |
| 2026-05-03 22:08 | 40.97152 | -8.55025 | 7816 ft | 267 kts | 285° |
| 2026-05-03 22:08 | 40.97626 | -8.57360 | 7319 ft | 259 kts | 285° |
| 2026-05-03 22:08 | 40.98218 | -8.59554 | 6821 ft | 250 kts | 302° |
| 2026-05-03 22:08 | 40.99410 | -8.61154 | 6324 ft | 243 kts | 329° |
| 2026-05-03 22:09 | 41.00961 | -8.61872 | 5800 ft | 238 kts | 347° |
| 2026-05-03 22:09 | 41.02565 | -8.62299 | 5307 ft | 233 kts | 347° |
| 2026-05-03 22:09 | 41.04143 | -8.62716 | 4792 ft | 230 kts | 347° |
| 2026-05-03 22:10 | 41.07204 | -8.63526 | 3761 ft | 214 kts | 348° |
| 2026-05-03 22:10 | 41.08632 | -8.63897 | 3247 ft | 204 kts | 348° |
| 2026-05-03 22:10 | 41.09984 | -8.64246 | 2986 ft | 195 kts | 348° |
| 2026-05-03 22:10 | 41.11305 | -8.64589 | 2670 ft | 188 kts | 348° |
| 2026-05-03 22:11 | 41.12547 | -8.64910 | 2418 ft | 175 kts | 348° |
| 2026-05-03 22:11 | 41.13701 | -8.65209 | 2151 ft | 163 kts | 348° |
| 2026-05-03 22:11 | 41.14756 | -8.65484 | 1956 ft | 147 kts | 348° |
| 2026-05-03 22:11 | 41.15732 | -8.65739 | 1758 ft | 140 kts | 348° |
| 2026-05-03 22:12 | 41.16678 | -8.65988 | 1570 ft | 137 kts | 347° |
| 2026-05-03 22:12 | 41.17611 | -8.66253 | 1350 ft | 136 kts | 347° |
| 2026-05-03 22:12 | 41.18536 | -8.66505 | 1204 ft | 136 kts | 347° |
| 2026-05-03 22:12 | 41.19458 | -8.66758 | 1040 ft | 135 kts | 348° |
| 2026-05-03 22:13 | 41.20379 | -8.66988 | 852 ft | 135 kts | 348° |
| 2026-05-03 22:13 | 41.21309 | -8.67224 | 671 ft | 138 kts | 351° |
| 2026-05-03 22:13 | 41.22275 | -8.67466 | 489 ft | 142 kts | 348° |
| 2026-05-03 22:13 | 41.23245 | -8.67718 | 312 ft | 139 kts | 348° |
| 2026-05-03 22:14 | 41.24136 | -8.67951 | 217 ft | 117 kts | 349° |
| 2026-05-03 22:14 | 41.24768 | -8.68116 | 200 ft | 65 kts | 349° |
| 2026-05-03 22:14 | 41.25105 | -8.68169 | 196 ft | 40 kts | 7° |
| 2026-05-03 22:14 | 41.25287 | -8.68080 | 179 ft | 15 kts | 59° |
| 2026-05-03 22:15 | 41.25230 | -8.68002 | 199 ft | 11 kts | 160° |
| 2026-05-03 22:15 | 41.25172 | -8.67990 | 198 ft | 6 kts | 171° |
| 2026-05-03 22:15 | 41.25138 | -8.67981 | 189 ft | 7 kts | 169° |
| 2026-05-03 22:15 | 41.25054 | -8.67959 | 195 ft | 19 kts | 169° |
| 2026-05-03 22:16 | 41.24921 | -8.67924 | 196 ft | 19 kts | 169° |
| 2026-05-03 22:16 | 41.24798 | -8.67852 | 207 ft | 23 kts | 153° |
| 2026-05-03 22:16 | 41.24659 | -8.67800 | 211 ft | 19 kts | 168° |
| 2026-05-03 22:16 | 41.24550 | -8.67771 | 217 ft | 13 kts | 168° |
| 2026-05-03 22:17 | 41.24479 | -8.67753 | 221 ft | 8 kts | 169° |
| 2026-05-03 22:17 | 41.24440 | -8.67743 | 223 ft | 6 kts | 169° |
| 2026-05-03 22:17 | 41.24405 | -8.67734 | 227 ft | 3 kts | 169° |
| 2026-05-03 22:17 | 41.24376 | -8.67727 | 227 ft | 3 kts | 169° |
| 2026-05-03 22:18 | 41.24314 | -8.67710 | 230 ft | 17 kts | 161° |
| 2026-05-03 22:18 | 41.24240 | -8.67601 | 237 ft | 14 kts | 139° |
| 2026-05-03 22:18 | 41.24158 | -8.67563 | 238 ft | 12 kts | 169° |
| 2026-05-03 22:18 | 41.24080 | -8.67542 | 238 ft | 11 kts | 168° |
| 2026-05-03 22:19 | 41.24009 | -8.67524 | 238 ft | 10 kts | 169° |
| 2026-05-03 22:19 | 41.23945 | -8.67508 | 238 ft | 9 kts | 169° |
| 2026-05-03 22:19 | 41.23891 | -8.67494 | 238 ft | 7 kts | 168° |
| 2026-05-03 22:19 | 41.23874 | -8.67489 | 239 ft | 6 kts | 168° |
| 2026-05-03 22:20 | 41.23861 | -8.67485 | 239 ft | 6 kts | 168° |
| 2026-05-03 22:20 | 41.23810 | -8.67471 | 239 ft | 9 kts | 168° |
| 2026-05-03 22:20 | 41.23753 | -8.67445 | 239 ft | 8 kts | 141° |
| 2026-05-03 22:20 | 41.23708 | -8.67371 | 241 ft | 11 kts | 130° |
| 2026-05-03 22:21 | 41.23685 | -8.67348 | 242 ft | 0 kts | 154° |
| 2026-05-03 22:21 | 41.23676 | -8.67344 | 242 ft | 6 kts | 163° |
| 2026-05-03 22:21 | 41.23636 | -8.67325 | 242 ft | 5 kts | 143° |
| 2026-05-03 22:21 | 41.23633 | -8.67299 | 243 ft | 1 kts | 85° |
| 2026-05-03 22:22 | 41.23634 | -8.67287 | 244 ft | 0 kts | 82° |
| 2026-05-03 22:22 | 41.23639 | -8.67246 | 245 ft | 5 kts | 81° |
| 2026-05-03 22:22 | 41.23641 | -8.67234 | 245 ft | 0 kts | 81° |